»·PEaware :: AAL361 KSFO-KSAN

AAL361 :: KSFO-KSAN

FLIGHT INFORMATION

Flight Status: Arrived
Operator:
American Airlines
More flights by this operator :: More flights under this callsign
Pilot: Anonymous 15267 (15267)
Aircraft: AIRBUS A319
(A319)
More flights by this aircraft type
Origin: KSFO San Francisco Intl
United States
Destination: KSAN San Diego Intl-Lindbergh
United States
More flights between these airports :: More routes between these airports
Route: +OFFSH2 MCKEY LAX COMIX2
File this flight plan on PilotEdge
Remarks: RMK / SIMBRIEF
Altitude:
(Current/Filed)
37,000ft
Speed:
(Current/Filed)
437kts
Departed: 27-Jan-20 02:58 PM
Arrived: 27-Jan-20 04:17 PM
Distance/Time
Traveled:
387nm/1:19
Distance/Time
To Go:
Arrived

Flight Plot

Page will automatically refresh every two minutes.

Flight plan parsing failed; only flown route is shown


Map Options




Map Legend


Flown Route
Filed Route
Departure Airport
Arrival Airport
Navaid (VOR, NDB)
Fix

Horizontal Profiles

Position Reports

Time Latitude Longitude Heading Altitude Ground
Speed
27-Jan-20 14:30 37.616764 -122.381702 0 22ft 0kts
27-Jan-20 14:31 37.616764 -122.381702 22 22ft 0kts
27-Jan-20 14:32 37.616764 -122.381702 22 22ft 0kts
27-Jan-20 14:33 37.616764 -122.381702 22 22ft 0kts
27-Jan-20 14:34 37.616764 -122.381702 22 22ft 0kts
27-Jan-20 14:35 37.616764 -122.381702 22 22ft 0kts
27-Jan-20 14:36 37.616764 -122.381702 22 22ft 0kts
27-Jan-20 14:37 37.616764 -122.381702 22 22ft 0kts
27-Jan-20 14:38 37.616764 -122.381702 22 22ft 0kts
27-Jan-20 14:39 37.616764 -122.381702 22 22ft 0kts
27-Jan-20 14:40 37.616764 -122.381702 22 22ft 0kts
27-Jan-20 14:41 37.616764 -122.381702 22 22ft 0kts
27-Jan-20 14:42 37.616764 -122.381702 22 22ft 0kts
27-Jan-20 14:43 37.616764 -122.381702 22 22ft 0kts
27-Jan-20 14:44 37.616764 -122.381702 22 22ft 0kts
27-Jan-20 14:45 37.616764 -122.381702 22 22ft 0kts
27-Jan-20 14:46 37.616764 -122.381702 22 22ft 0kts
27-Jan-20 14:47 37.616514 -122.381830 22 22ft 2kts
27-Jan-20 14:48 37.616125 -122.382185 111 22ft 0kts
27-Jan-20 14:49 37.615736 -122.381221 119 22ft 0kts
27-Jan-20 14:50 37.615735 -122.381220 119 22ft 0kts
27-Jan-20 14:51 37.615735 -122.381220 119 22ft 0kts
27-Jan-20 14:52 37.615673 -122.381085 120 22ft 4kts
27-Jan-20 14:53 37.612767 -122.382193 207 22ft 16kts
27-Jan-20 14:54 37.609483 -122.384089 140 22ft 10kts
27-Jan-20 14:55 37.609210 -122.383656 123 22ft 0kts
27-Jan-20 14:56 37.609140 -122.383523 123 22ft 3kts
27-Jan-20 14:57 37.617367 -122.376678 27 22ft 134kts
27-Jan-20 14:58 37.660559 -122.365740 0 2217ft 180kts
27-Jan-20 14:59 37.715056 -122.379538 308 4483ft 242kts
27-Jan-20 15:00 37.696994 -122.456546 227 7643ft 277kts
27-Jan-20 15:01 37.651201 -122.534770 239 10430ft 283kts
27-Jan-20 15:02 37.587459 -122.607180 216 13013ft 332kts
27-Jan-20 15:03 37.505824 -122.664974 212 15887ft 347kts
27-Jan-20 15:04 37.409853 -122.685935 172 18562ft 376kts
27-Jan-20 15:05 37.306441 -122.659177 172 20893ft 386kts
27-Jan-20 15:06 37.199814 -122.632170 172 22966ft 397kts
27-Jan-20 15:07 37.090286 -122.604599 172 24838ft 408kts
27-Jan-20 15:08 36.977954 -122.576388 172 26527ft 418kts
27-Jan-20 15:09 36.863031 -122.546646 172 28039ft 429kts
27-Jan-20 15:10 36.745294 -122.516088 172 29466ft 438kts
27-Jan-20 15:11 36.625300 -122.485064 172 30723ft 447kts
27-Jan-20 15:12 36.502816 -122.453296 170 31858ft 456kts
27-Jan-20 15:13 36.388591 -122.380330 140 32957ft 476kts
27-Jan-20 15:14 36.301334 -122.256361 131 34153ft 478kts
27-Jan-20 15:15 36.215916 -122.131238 132 35324ft 475kts
27-Jan-20 15:16 36.130748 -122.007725 132 36384ft 472kts
27-Jan-20 15:17 36.045433 -121.884515 132 37253ft 471kts
27-Jan-20 15:18 35.960253 -121.761909 132 37420ft 471kts
27-Jan-20 15:19 35.876025 -121.641301 132 37399ft 471kts
27-Jan-20 15:20 35.790377 -121.519431 132 37378ft 471kts
27-Jan-20 15:21 35.705050 -121.397957 132 37369ft 472kts
27-Jan-20 15:22 35.618959 -121.275512 132 37367ft 471kts
27-Jan-20 15:23 35.533302 -121.154359 133 37368ft 471kts
27-Jan-20 15:24 35.451789 -121.028295 125 37367ft 473kts
27-Jan-20 15:25 35.377262 -120.895803 126 37356ft 472kts
27-Jan-20 15:26 35.302366 -120.763663 126 37345ft 473kts
27-Jan-20 15:27 35.227345 -120.631897 126 37342ft 473kts
27-Jan-20 15:28 35.152085 -120.500159 126 37341ft 473kts
27-Jan-20 15:29 35.076793 -120.368852 126 37332ft 474kts
27-Jan-20 15:30 35.001212 -120.237101 126 37325ft 473kts
27-Jan-20 15:31 34.925836 -120.106501 126 37311ft 473kts
27-Jan-20 15:32 34.850990 -119.977985 127 37284ft 474kts
27-Jan-20 15:33 34.774596 -119.847085 126 37267ft 476kts
27-Jan-20 15:34 34.698048 -119.716034 127 37245ft 475kts
27-Jan-20 15:35 34.621842 -119.586088 126 37234ft 475kts
27-Jan-20 15:36 34.545029 -119.455542 126 37232ft 475kts
27-Jan-20 15:37 34.469135 -119.326953 127 37227ft 475kts
27-Jan-20 15:38 34.392306 -119.196913 127 37237ft 475kts
27-Jan-20 15:40 34.315247 -119.067331 127 37235ft 476kts
27-Jan-20 15:41 34.237847 -118.937718 127 37242ft 476kts
27-Jan-20 15:42 34.160247 -118.808218 127 37123ft 471kts
27-Jan-20 15:43 34.084348 -118.682181 126 35291ft 461kts
27-Jan-20 15:44 34.009710 -118.558587 125 33621ft 450kts
27-Jan-20 15:45 33.936941 -118.438972 128 32060ft 439kts
27-Jan-20 15:46 33.857064 -118.333619 134 30484ft 427kts
27-Jan-20 15:47 33.777224 -118.230498 134 28896ft 415kts
27-Jan-20 15:48 33.700435 -118.129522 133 27309ft 405kts
27-Jan-20 15:49 33.625478 -118.031281 133 25742ft 394kts
27-Jan-20 15:50 33.552144 -117.935512 133 23859ft 395kts
27-Jan-20 15:51 33.471972 -117.842159 136 21614ft 399kts
27-Jan-20 15:52 33.391845 -117.753301 139 19920ft 388kts
27-Jan-20 15:53 33.312571 -117.669073 138 18251ft 377kts
27-Jan-20 15:54 33.235212 -117.586791 138 16576ft 367kts
27-Jan-20 15:55 33.159626 -117.507295 138 14928ft 358kts
27-Jan-20 15:56 33.081122 -117.436912 145 13295ft 349kts
27-Jan-20 15:57 33.002763 -117.371434 144 11714ft 340kts
27-Jan-20 15:58 32.929623 -117.309963 144 11022ft 303kts
27-Jan-20 15:58 32.894483 -117.245093 111 10299ft 279kts
27-Jan-20 16:00 32.865363 -117.146672 101 8964ft 263kts
27-Jan-20 16:01 32.848049 -117.063111 101 7742ft 256kts
27-Jan-20 16:01 32.834519 -116.997593 101 7190ft 232kts
27-Jan-20 16:02 32.819195 -116.923826 101 6064ft 228kts
27-Jan-20 16:03 32.804143 -116.851331 101 5007ft 222kts
27-Jan-20 16:04 32.789237 -116.779596 101 5000ft 224kts
27-Jan-20 16:05 32.774648 -116.707330 101 5000ft 225kts
27-Jan-20 16:06 32.732565 -116.668460 205 4999ft 232kts
27-Jan-20 16:07 32.689331 -116.725415 236 4996ft 232kts
27-Jan-20 16:08 32.666083 -116.796584 251 4999ft 233kts
27-Jan-20 16:09 32.655910 -116.869447 284 4957ft 209kts
27-Jan-20 16:10 32.670716 -116.930082 288 4143ft 179kts
27-Jan-20 16:11 32.683984 -116.984543 288 3581ft 171kts
27-Jan-20 16:12 32.696928 -117.038102 288 2844ft 162kts
27-Jan-20 16:13 32.707933 -117.083714 287 1930ft 138kts
27-Jan-20 16:14 32.718151 -117.126392 287 1061ft 132kts
27-Jan-20 16:15 32.728552 -117.169078 287 289ft 135kts
27-Jan-20 16:16 32.735232 -117.197645 253 26ft 17kts
27-Jan-20 16:17 32.734886 -117.199645 287 26ft 7kts
27-Jan-20 16:18 32.734658 -117.202493 199 26ft 10kts
27-Jan-20 16:19 32.734158 -117.203319 269 26ft 0kts
27-Jan-20 16:20 32.734158 -117.203319 269 26ft 0kts
27-Jan-20 16:21 32.734158 -117.203319 269 26ft 0kts

Navigation Log

Ident Type
Flight plan parsing failed, navigation log unavailable